sensor_id;sensor_type;location;lat;lon;timestamp;P1;P2;P0
70255;PMS5003;57669;52.624;-1.688;2023-04-03T00:01:23;15;13;
70255;PMS5003;57669;52.624;-1.688;2023-04-03T00:03:48;15;13;
70255;PMS5003;57669;52.624;-1.688;2023-04-03T00:06:13;11;10;
70255;PMS5003;57669;52.624;-1.688;2023-04-03T00:08:39;10;9;
70255;PMS5003;57669;52.624;-1.688;2023-04-03T00:11:04;12;11;
70255;PMS5003;57669;52.624;-1.688;2023-04-03T00:13:29;9;8;
70255;PMS5003;57669;52.624;-1.688;2023-04-03T00:15:54;10;10;
70255;PMS5003;57669;52.624;-1.688;2023-04-03T00:18:19;11;10;
70255;PMS5003;57669;52.624;-1.688;2023-04-03T00:20:44;13;12;
70255;PMS5003;57669;52.624;-1.688;2023-04-03T00:23:10;9;9;
70255;PMS5003;57669;52.624;-1.688;2023-04-03T00:25:35;12;11;
70255;PMS5003;57669;52.624;-1.688;2023-04-03T00:28:00;10;10;
70255;PMS5003;57669;52.624;-1.688;2023-04-03T00:30:26;13;12;
70255;PMS5003;57669;52.624;-1.688;2023-04-03T00:32:52;12;11;
70255;PMS5003;57669;52.624;-1.688;2023-04-03T00:35:17;13;12;
70255;PMS5003;57669;52.624;-1.688;2023-04-03T00:37:42;12;11;
70255;PMS5003;57669;52.624;-1.688;2023-04-03T00:40:08;9;9;
70255;PMS5003;57669;52.624;-1.688;2023-04-03T00:42:33;9;9;
70255;PMS5003;57669;52.624;-1.688;2023-04-03T00:47:24;10;9;
70255;PMS5003;57669;52.624;-1.688;2023-04-03T00:49:49;11;10;
70255;PMS5003;57669;52.624;-1.688;2023-04-03T00:52:15;10;10;
70255;PMS5003;57669;52.624;-1.688;2023-04-03T00:54:39;11;10;
70255;PMS5003;57669;52.624;-1.688;2023-04-03T00:57:05;10;10;
70255;PMS5003;57669;52.624;-1.688;2023-04-03T00:59:31;11;10;
70255;PMS5003;57669;52.624;-1.688;2023-04-03T01:01:55;12;11;
70255;PMS5003;57669;52.624;-1.688;2023-04-03T01:06:46;15;14;
70255;PMS5003;57669;52.624;-1.688;2023-04-03T01:09:11;10;10;
70255;PMS5003;57669;52.624;-1.688;2023-04-03T01:11:36;11;10;
70255;PMS5003;57669;52.624;-1.688;2023-04-03T01:14:02;11;11;
70255;PMS5003;57669;52.624;-1.688;2023-04-03T01:16:27;13;12;
70255;PMS5003;57669;52.624;-1.688;2023-04-03T01:18:53;11;11;
70255;PMS5003;57669;52.624;-1.688;2023-04-03T01:23:48;10;10;
70255;PMS5003;57669;52.624;-1.688;2023-04-03T01:26:10;15;13;
70255;PMS5003;57669;52.624;-1.688;2023-04-03T01:28:35;11;11;
70255;PMS5003;57669;52.624;-1.688;2023-04-03T01:31:02;12;10;
70255;PMS5003;57669;52.624;-1.688;2023-04-03T01:33:26;15;15;
70255;PMS5003;57669;52.624;-1.688;2023-04-03T01:35:51;14;14;
70255;PMS5003;57669;52.624;-1.688;2023-04-03T01:38:17;10;10;
70255;PMS5003;57669;52.624;-1.688;2023-04-03T01:40:42;16;14;
70255;PMS5003;57669;52.624;-1.688;2023-04-03T01:43:07;13;13;
70255;PMS5003;57669;52.624;-1.688;2023-04-03T01:45:32;14;13;
70255;PMS5003;57669;52.624;-1.688;2023-04-03T01:50:23;12;12;
70255;PMS5003;57669;52.624;-1.688;2023-04-03T01:52:49;14;13;
70255;PMS5003;57669;52.624;-1.688;2023-04-03T01:55:14;14;13;
70255;PMS5003;57669;52.624;-1.688;2023-04-03T01:57:39;11;10;
70255;PMS5003;57669;52.624;-1.688;2023-04-03T02:00:05;12;12;
70255;PMS5003;57669;52.624;-1.688;2023-04-03T02:02:30;12;12;
70255;PMS5003;57669;52.624;-1.688;2023-04-03T02:04:55;11;11;
70255;PMS5003;57669;52.624;-1.688;2023-04-03T02:07:21;13;12;
70255;PMS5003;57669;52.624;-1.688;2023-04-03T02:09:47;10;9;
70255;PMS5003;57669;52.624;-1.688;2023-04-03T02:12:12;12;11;
70255;PMS5003;57669;52.624;-1.688;2023-04-03T02:14:37;13;13;
70255;PMS5003;57669;52.624;-1.688;2023-04-03T02:19:28;10;10;
70255;PMS5003;57669;52.624;-1.688;2023-04-03T02:21:53;13;13;
70255;PMS5003;57669;52.624;-1.688;2023-04-03T02:24:19;12;11;
70255;PMS5003;57669;52.624;-1.688;2023-04-03T02:26:44;15;14;
70255;PMS5003;57669;52.624;-1.688;2023-04-03T02:29:09;14;12;
70255;PMS5003;57669;52.624;-1.688;2023-04-03T02:34:00;15;12;
70255;PMS5003;57669;52.624;-1.688;2023-04-03T02:36:26;13;13;
70255;PMS5003;57669;52.624;-1.688;2023-04-03T02:38:51;16;16;
70255;PMS5003;57669;52.624;-1.688;2023-04-03T02:41:17;11;11;
70255;PMS5003;57669;52.624;-1.688;2023-04-03T02:43:42;13;12;
70255;PMS5003;57669;52.624;-1.688;2023-04-03T02:46:07;11;11;
70255;PMS5003;57669;52.624;-1.688;2023-04-03T02:48:32;13;12;
70255;PMS5003;57669;52.624;-1.688;2023-04-03T02:50:58;13;13;
70255;PMS5003;57669;52.624;-1.688;2023-04-03T02:53:23;10;10;
70255;PMS5003;57669;52.624;-1.688;2023-04-03T02:55:48;19;18;
70255;PMS5003;57669;52.624;-1.688;2023-04-03T02:58:14;16;15;
70255;PMS5003;57669;52.624;-1.688;2023-04-03T03:00:40;15;12;
70255;PMS5003;57669;52.624;-1.688;2023-04-03T03:03:05;14;13;
70255;PMS5003;57669;52.624;-1.688;2023-04-03T03:05:30;11;9;
70255;PMS5003;57669;52.624;-1.688;2023-04-03T03:07:55;10;10;
70255;PMS5003;57669;52.624;-1.688;2023-04-03T03:10:21;11;11;
70255;PMS5003;57669;52.624;-1.688;2023-04-03T03:12:46;15;13;
70255;PMS5003;57669;52.624;-1.688;2023-04-03T03:15:11;13;13;
70255;PMS5003;57669;52.624;-1.688;2023-04-03T03:17:36;12;12;
70255;PMS5003;57669;52.624;-1.688;2023-04-03T03:20:02;15;15;
70255;PMS5003;57669;52.624;-1.688;2023-04-03T03:22:28;14;14;
70255;PMS5003;57669;52.624;-1.688;2023-04-03T03:24:54;13;13;
70255;PMS5003;57669;52.624;-1.688;2023-04-03T03:29:44;16;13;
70255;PMS5003;57669;52.624;-1.688;2023-04-03T03:32:10;14;12;
70255;PMS5003;57669;52.624;-1.688;2023-04-03T03:34:35;13;12;
70255;PMS5003;57669;52.624;-1.688;2023-04-03T03:37:01;16;16;
70255;PMS5003;57669;52.624;-1.688;2023-04-03T03:39:27;13;12;
70255;PMS5003;57669;52.624;-1.688;2023-04-03T03:41:52;15;15;
70255;PMS5003;57669;52.624;-1.688;2023-04-03T03:44:17;16;15;
70255;PMS5003;57669;52.624;-1.688;2023-04-03T03:46:42;18;17;
70255;PMS5003;57669;52.624;-1.688;2023-04-03T03:49:08;12;12;
70255;PMS5003;57669;52.624;-1.688;2023-04-03T03:51:34;15;13;
70255;PMS5003;57669;52.624;-1.688;2023-04-03T03:53:59;15;14;
70255;PMS5003;57669;52.624;-1.688;2023-04-03T03:56:25;12;12;
70255;PMS5003;57669;52.624;-1.688;2023-04-03T03:58:50;14;12;
70255;PMS5003;57669;52.624;-1.688;2023-04-03T04:01:16;14;11;
70255;PMS5003;57669;52.624;-1.688;2023-04-03T04:03:41;14;14;
70255;PMS5003;57669;52.624;-1.688;2023-04-03T04:06:07;15;14;
70255;PMS5003;57669;52.624;-1.688;2023-04-03T04:08:33;16;14;
70255;PMS5003;57669;52.624;-1.688;2023-04-03T04:10:58;15;14;
70255;PMS5003;57669;52.624;-1.688;2023-04-03T04:13:23;12;12;
70255;PMS5003;57669;52.624;-1.688;2023-04-03T04:15:49;15;15;
70255;PMS5003;57669;52.624;-1.688;2023-04-03T04:18:15;14;14;
70255;PMS5003;57669;52.624;-1.688;2023-04-03T04:20:40;16;15;
70255;PMS5003;57669;52.624;-1.688;2023-04-03T04:23:05;11;11;
70255;PMS5003;57669;52.624;-1.688;2023-04-03T04:25:31;15;15;
70255;PMS5003;57669;52.624;-1.688;2023-04-03T04:27:56;14;14;
70255;PMS5003;57669;52.624;-1.688;2023-04-03T04:30:22;16;16;
70255;PMS5003;57669;52.624;-1.688;2023-04-03T04:32:47;15;15;
70255;PMS5003;57669;52.624;-1.688;2023-04-03T04:35:13;18;18;
70255;PMS5003;57669;52.624;-1.688;2023-04-03T04:37:39;16;16;
70255;PMS5003;57669;52.624;-1.688;2023-04-03T04:40:04;16;15;
70255;PMS5003;57669;52.624;-1.688;2023-04-03T04:42:29;12;12;
70255;PMS5003;57669;52.624;-1.688;2023-04-03T04:44:55;15;15;
70255;PMS5003;57669;52.624;-1.688;2023-04-03T04:49:46;14;14;
70255;PMS5003;57669;52.624;-1.688;2023-04-03T04:52:11;15;13;
70255;PMS5003;57669;52.624;-1.688;2023-04-03T04:54:37;17;16;
70255;PMS5003;57669;52.624;-1.688;2023-04-03T04:57:02;23;21;
70255;PMS5003;57669;52.624;-1.688;2023-04-03T04:59:27;17;17;
70255;PMS5003;57669;52.624;-1.688;2023-04-03T05:01:53;18;17;
70255;PMS5003;57669;52.624;-1.688;2023-04-03T05:04:18;14;13;
70255;PMS5003;57669;52.624;-1.688;2023-04-03T05:06:44;16;16;
70255;PMS5003;57669;52.624;-1.688;2023-04-03T05:09:10;19;17;
70255;PMS5003;57669;52.624;-1.688;2023-04-03T05:11:35;18;17;
70255;PMS5003;57669;52.624;-1.688;2023-04-03T05:14:00;16;16;
70255;PMS5003;57669;52.624;-1.688;2023-04-03T05:16:26;19;18;
70255;PMS5003;57669;52.624;-1.688;2023-04-03T05:18:51;16;15;
70255;PMS5003;57669;52.624;-1.688;2023-04-03T05:21:17;15;15;
70255;PMS5003;57669;52.624;-1.688;2023-04-03T05:23:43;14;14;
70255;PMS5003;57669;52.624;-1.688;2023-04-03T05:26:08;17;16;
70255;PMS5003;57669;52.624;-1.688;2023-04-03T05:28:33;18;16;
70255;PMS5003;57669;52.624;-1.688;2023-04-03T05:30:59;17;15;
70255;PMS5003;57669;52.624;-1.688;2023-04-03T05:33:25;16;16;
70255;PMS5003;57669;52.624;-1.688;2023-04-03T05:35:50;16;15;
70255;PMS5003;57669;52.624;-1.688;2023-04-03T05:38:15;14;14;
70255;PMS5003;57669;52.624;-1.688;2023-04-03T05:40:41;15;15;
70255;PMS5003;57669;52.624;-1.688;2023-04-03T05:43:06;11;11;
70255;PMS5003;57669;52.624;-1.688;2023-04-03T05:45:32;16;15;
70255;PMS5003;57669;52.624;-1.688;2023-04-03T05:47:58;15;15;
70255;PMS5003;57669;52.624;-1.688;2023-04-03T05:50:23;16;13;
70255;PMS5003;57669;52.624;-1.688;2023-04-03T05:52:49;16;15;
70255;PMS5003;57669;52.624;-1.688;2023-04-03T05:55:14;15;15;
70255;PMS5003;57669;52.624;-1.688;2023-04-03T05:57:39;14;14;
70255;PMS5003;57669;52.624;-1.688;2023-04-03T06:00:05;12;12;
70255;PMS5003;57669;52.624;-1.688;2023-04-03T06:02:30;14;14;
70255;PMS5003;57669;52.624;-1.688;2023-04-03T06:04:56;16;13;
70255;PMS5003;57669;52.624;-1.688;2023-04-03T06:07:23;22;20;
70255;PMS5003;57669;52.624;-1.688;2023-04-03T06:09:47;14;13;
70255;PMS5003;57669;52.624;-1.688;2023-04-03T06:12:13;13;13;
70255;PMS5003;57669;52.624;-1.688;2023-04-03T06:14:39;12;12;
70255;PMS5003;57669;52.624;-1.688;2023-04-03T06:19:30;13;13;
70255;PMS5003;57669;52.624;-1.688;2023-04-03T06:21:56;15;14;
70255;PMS5003;57669;52.624;-1.688;2023-04-03T06:24:22;14;14;
70255;PMS5003;57669;52.624;-1.688;2023-04-03T06:26:48;15;14;
70255;PMS5003;57669;52.624;-1.688;2023-04-03T06:29:13;13;13;
70255;PMS5003;57669;52.624;-1.688;2023-04-03T06:31:39;14;14;
70255;PMS5003;57669;52.624;-1.688;2023-04-03T06:34:04;13;12;
70255;PMS5003;57669;52.624;-1.688;2023-04-03T06:36:30;19;18;
70255;PMS5003;57669;52.624;-1.688;2023-04-03T06:38:55;18;17;
70255;PMS5003;57669;52.624;-1.688;2023-04-03T06:41:21;14;14;
70255;PMS5003;57669;52.624;-1.688;2023-04-03T06:43:46;22;22;
70255;PMS5003;57669;52.624;-1.688;2023-04-03T06:46:14;16;16;
70255;PMS5003;57669;52.624;-1.688;2023-04-03T06:48:37;19;19;
70255;PMS5003;57669;52.624;-1.688;2023-04-03T06:51:02;18;16;
70255;PMS5003;57669;52.624;-1.688;2023-04-03T06:53:28;14;14;
70255;PMS5003;57669;52.624;-1.688;2023-04-03T06:55:53;24;23;
70255;PMS5003;57669;52.624;-1.688;2023-04-03T06:58:19;24;22;
70255;PMS5003;57669;52.624;-1.688;2023-04-03T07:00:44;23;21;
70255;PMS5003;57669;52.624;-1.688;2023-04-03T07:03:10;20;18;
70255;PMS5003;57669;52.624;-1.688;2023-04-03T07:05:35;19;16;
70255;PMS5003;57669;52.624;-1.688;2023-04-03T07:08:01;20;18;
70255;PMS5003;57669;52.624;-1.688;2023-04-03T07:10:27;17;17;
70255;PMS5003;57669;52.624;-1.688;2023-04-03T07:12:52;17;15;
70255;PMS5003;57669;52.624;-1.688;2023-04-03T07:17:43;19;18;
70255;PMS5003;57669;52.624;-1.688;2023-04-03T07:22:33;11;11;
70255;PMS5003;57669;52.624;-1.688;2023-04-03T07:24:59;11;10;
70255;PMS5003;57669;52.624;-1.688;2023-04-03T07:27:24;10;9;
70255;PMS5003;57669;52.624;-1.688;2023-04-03T07:29:49;10;9;
70255;PMS5003;57669;52.624;-1.688;2023-04-03T07:32:15;9;9;
70255;PMS5003;57669;52.624;-1.688;2023-04-03T07:37:05;13;13;
70255;PMS5003;57669;52.624;-1.688;2023-04-03T07:39:30;12;10;
70255;PMS5003;57669;52.624;-1.688;2023-04-03T07:41:55;11;11;
70255;PMS5003;57669;52.624;-1.688;2023-04-03T07:44:21;12;11;
70255;PMS5003;57669;52.624;-1.688;2023-04-03T07:46:46;11;10;
70255;PMS5003;57669;52.624;-1.688;2023-04-03T07:49:12;10;9;
70255;PMS5003;57669;52.624;-1.688;2023-04-03T07:51:37;11;10;
70255;PMS5003;57669;52.624;-1.688;2023-04-03T07:56:27;11;10;
70255;PMS5003;57669;52.624;-1.688;2023-04-03T07:58:52;10;9;
70255;PMS5003;57669;52.624;-1.688;2023-04-03T08:01:18;15;13;
70255;PMS5003;57669;52.624;-1.688;2023-04-03T08:03:43;10;10;
70255;PMS5003;57669;52.624;-1.688;2023-04-03T08:08:34;9;8;
70255;PMS5003;57669;52.624;-1.688;2023-04-03T08:11:00;11;9;
70255;PMS5003;57669;52.624;-1.688;2023-04-03T08:13:25;7;7;
70255;PMS5003;57669;52.624;-1.688;2023-04-03T08:15:50;7;7;
70255;PMS5003;57669;52.624;-1.688;2023-04-03T08:18:15;7;7;
70255;PMS5003;57669;52.624;-1.688;2023-04-03T08:20:40;5;5;
70255;PMS5003;57669;52.624;-1.688;2023-04-03T08:23:05;6;6;
70255;PMS5003;57669;52.624;-1.688;2023-04-03T08:27:56;5;5;
70255;PMS5003;57669;52.624;-1.688;2023-04-03T08:30:21;11;11;
70255;PMS5003;57669;52.624;-1.688;2023-04-03T08:32:46;7;6;
70255;PMS5003;57669;52.624;-1.688;2023-04-03T08:35:11;7;6;
70255;PMS5003;57669;52.624;-1.688;2023-04-03T08:37:36;7;7;
70255;PMS5003;57669;52.624;-1.688;2023-04-03T08:40:02;10;9;
70255;PMS5003;57669;52.624;-1.688;2023-04-03T08:42:33;7;6;
70255;PMS5003;57669;52.624;-1.688;2023-04-03T08:47:19;9;8;
70255;PMS5003;57669;52.624;-1.688;2023-04-03T08:49:43;9;8;
70255;PMS5003;57669;52.624;-1.688;2023-04-03T08:52:09;7;5;
70255;PMS5003;57669;52.624;-1.688;2023-04-03T08:54:34;9;7;
70255;PMS5003;57669;52.624;-1.688;2023-04-03T08:56:58;7;6;
70255;PMS5003;57669;52.624;-1.688;2023-04-03T08:59:25;10;8;
70255;PMS5003;57669;52.624;-1.688;2023-04-03T09:01:49;11;10;
70255;PMS5003;57669;52.624;-1.688;2023-04-03T09:04:15;7;7;
70255;PMS5003;57669;52.624;-1.688;2023-04-03T09:06:40;4;3;
70255;PMS5003;57669;52.624;-1.688;2023-04-03T09:09:09;7;5;
70255;PMS5003;57669;52.624;-1.688;2023-04-03T09:11:34;6;6;
70255;PMS5003;57669;52.624;-1.688;2023-04-03T09:13:57;12;10;
70255;PMS5003;57669;52.624;-1.688;2023-04-03T09:16:26;8;7;
70255;PMS5003;57669;52.624;-1.688;2023-04-03T09:18:48;7;7;
70255;PMS5003;57669;52.624;-1.688;2023-04-03T09:21:13;8;7;
70255;PMS5003;57669;52.624;-1.688;2023-04-03T09:23:39;6;5;
70255;PMS5003;57669;52.624;-1.688;2023-04-03T09:26:03;7;6;
70255;PMS5003;57669;52.624;-1.688;2023-04-03T09:28:27;4;4;
70255;PMS5003;57669;52.624;-1.688;2023-04-03T09:30:52;6;4;
70255;PMS5003;57669;52.624;-1.688;2023-04-03T09:33:18;4;4;
70255;PMS5003;57669;52.624;-1.688;2023-04-03T09:35:43;6;5;
70255;PMS5003;57669;52.624;-1.688;2023-04-03T09:40:34;4;4;
70255;PMS5003;57669;52.624;-1.688;2023-04-03T09:42:58;6;5;
70255;PMS5003;57669;52.624;-1.688;2023-04-03T09:45:24;6;4;
70255;PMS5003;57669;52.624;-1.688;2023-04-03T09:47:48;6;6;
70255;PMS5003;57669;52.624;-1.688;2023-04-03T09:50:18;5;5;
70255;PMS5003;57669;52.624;-1.688;2023-04-03T09:52:38;5;5;
70255;PMS5003;57669;52.624;-1.688;2023-04-03T09:57:32;5;5;
70255;PMS5003;57669;52.624;-1.688;2023-04-03T09:59:56;5;5;
70255;PMS5003;57669;52.624;-1.688;2023-04-03T10:02:22;6;6;
70255;PMS5003;57669;52.624;-1.688;2023-04-03T10:04:44;6;6;
70255;PMS5003;57669;52.624;-1.688;2023-04-03T10:09:34;5;3;
70255;PMS5003;57669;52.624;-1.688;2023-04-03T10:12:00;6;4;
70255;PMS5003;57669;52.624;-1.688;2023-04-03T10:14:25;5;5;
70255;PMS5003;57669;52.624;-1.688;2023-04-03T10:16:52;8;6;
70255;PMS5003;57669;52.624;-1.688;2023-04-03T10:19:21;6;6;
70255;PMS5003;57669;52.624;-1.688;2023-04-03T10:21:43;4;4;
70255;PMS5003;57669;52.624;-1.688;2023-04-03T10:24:08;7;6;
70255;PMS5003;57669;52.624;-1.688;2023-04-03T10:26:35;5;5;
70255;PMS5003;57669;52.624;-1.688;2023-04-03T10:29:01;6;6;
70255;PMS5003;57669;52.624;-1.688;2023-04-03T10:31:25;5;5;
70255;PMS5003;57669;52.624;-1.688;2023-04-03T10:33:53;8;7;
70255;PMS5003;57669;52.624;-1.688;2023-04-03T10:36:19;6;5;
70255;PMS5003;57669;52.624;-1.688;2023-04-03T10:38:44;7;5;
70255;PMS5003;57669;52.624;-1.688;2023-04-03T10:41:07;6;6;
70255;PMS5003;57669;52.624;-1.688;2023-04-03T10:43:33;11;7;
70255;PMS5003;57669;52.624;-1.688;2023-04-03T10:45:59;12;10;
70255;PMS5003;57669;52.624;-1.688;2023-04-03T10:48:26;6;6;
70255;PMS5003;57669;52.624;-1.688;2023-04-03T10:50:49;6;6;
70255;PMS5003;57669;52.624;-1.688;2023-04-03T10:53:16;6;6;
70255;PMS5003;57669;52.624;-1.688;2023-04-03T10:55:40;8;6;
70255;PMS5003;57669;52.624;-1.688;2023-04-03T10:58:04;6;6;
70255;PMS5003;57669;52.624;-1.688;2023-04-03T11:00:31;7;7;
70255;PMS5003;57669;52.624;-1.688;2023-04-03T11:02:56;8;7;
70255;PMS5003;57669;52.624;-1.688;2023-04-03T11:05:25;8;7;
70255;PMS5003;57669;52.624;-1.688;2023-04-03T11:07:47;7;7;
70255;PMS5003;57669;52.624;-1.688;2023-04-03T11:10:13;6;6;
70255;PMS5003;57669;52.624;-1.688;2023-04-03T11:12:40;8;6;
70255;PMS5003;57669;52.624;-1.688;2023-04-03T11:15:03;5;5;
70255;PMS5003;57669;52.624;-1.688;2023-04-03T11:17:30;7;5;
70255;PMS5003;57669;52.624;-1.688;2023-04-03T11:19:58;7;7;
70255;PMS5003;57669;52.624;-1.688;2023-04-03T11:22:22;6;6;
70255;PMS5003;57669;52.624;-1.688;2023-04-03T11:24:46;7;6;
70255;PMS5003;57669;52.624;-1.688;2023-04-03T11:27:12;6;6;
70255;PMS5003;57669;52.624;-1.688;2023-04-03T11:29:36;8;7;
70255;PMS5003;57669;52.624;-1.688;2023-04-03T11:32:04;5;5;
70255;PMS5003;57669;52.624;-1.688;2023-04-03T11:34:30;5;5;
70255;PMS5003;57669;52.624;-1.688;2023-04-03T11:36:53;7;6;
70255;PMS5003;57669;52.624;-1.688;2023-04-03T11:39:20;6;5;
70255;PMS5003;57669;52.624;-1.688;2023-04-03T11:41:44;6;5;
70255;PMS5003;57669;52.624;-1.688;2023-04-03T11:49:01;7;7;
70255;PMS5003;57669;52.624;-1.688;2023-04-03T11:53:52;5;4;
70255;PMS5003;57669;52.624;-1.688;2023-04-03T11:58:45;8;7;
70255;PMS5003;57669;52.624;-1.688;2023-04-03T12:01:10;6;6;
70255;PMS5003;57669;52.624;-1.688;2023-04-03T12:08:27;8;8;
70255;PMS5003;57669;52.624;-1.688;2023-04-03T12:13:18;6;5;
70255;PMS5003;57669;52.624;-1.688;2023-04-03T12:15:47;6;6;
70255;PMS5003;57669;52.624;-1.688;2023-04-03T12:27:53;6;6;
70255;PMS5003;57669;52.624;-1.688;2023-04-03T12:30:21;5;4;
70255;PMS5003;57669;52.624;-1.688;2023-04-03T12:32:47;5;4;
70255;PMS5003;57669;52.624;-1.688;2023-04-03T12:35:12;6;4;
70255;PMS5003;57669;52.624;-1.688;2023-04-03T12:37:40;6;6;
70255;PMS5003;57669;52.624;-1.688;2023-04-03T12:40:05;7;6;
70255;PMS5003;57669;52.624;-1.688;2023-04-03T12:44:55;6;6;
70255;PMS5003;57669;52.624;-1.688;2023-04-03T12:47:22;4;4;
70255;PMS5003;57669;52.624;-1.688;2023-04-03T12:49:44;5;5;
70255;PMS5003;57669;52.624;-1.688;2023-04-03T12:54:36;6;6;
70255;PMS5003;57669;52.624;-1.688;2023-04-03T12:59:27;7;6;
70255;PMS5003;57669;52.624;-1.688;2023-04-03T13:01:53;6;6;
70255;PMS5003;57669;52.624;-1.688;2023-04-03T13:04:18;7;5;
70255;PMS5003;57669;52.624;-1.688;2023-04-03T13:06:44;5;5;
70255;PMS5003;57669;52.624;-1.688;2023-04-03T13:11:36;6;5;
70255;PMS5003;57669;52.624;-1.688;2023-04-03T13:14:04;6;6;
70255;PMS5003;57669;52.624;-1.688;2023-04-03T13:16:27;5;5;
70255;PMS5003;57669;52.624;-1.688;2023-04-03T13:18:54;6;5;
70255;PMS5003;57669;52.624;-1.688;2023-04-03T13:21:19;6;6;
70255;PMS5003;57669;52.624;-1.688;2023-04-03T13:23:45;5;5;
70255;PMS5003;57669;52.624;-1.688;2023-04-03T13:26:10;5;5;
70255;PMS5003;57669;52.624;-1.688;2023-04-03T13:28:36;5;5;
70255;PMS5003;57669;52.624;-1.688;2023-04-03T13:31:03;6;6;
70255;PMS5003;57669;52.624;-1.688;2023-04-03T13:33:29;7;7;
70255;PMS5003;57669;52.624;-1.688;2023-04-03T13:35:54;5;5;
70255;PMS5003;57669;52.624;-1.688;2023-04-03T13:38:23;5;5;
70255;PMS5003;57669;52.624;-1.688;2023-04-03T13:40:47;5;5;
70255;PMS5003;57669;52.624;-1.688;2023-04-03T13:45:36;7;7;
70255;PMS5003;57669;52.624;-1.688;2023-04-03T13:50:27;8;7;
70255;PMS5003;57669;52.624;-1.688;2023-04-03T13:52:54;7;7;
70255;PMS5003;57669;52.624;-1.688;2023-04-03T13:55:21;8;7;
70255;PMS5003;57669;52.624;-1.688;2023-04-03T13:57:49;7;7;
70255;PMS5003;57669;52.624;-1.688;2023-04-03T14:02:38;8;7;
70255;PMS5003;57669;52.624;-1.688;2023-04-03T14:05:02;8;7;
70255;PMS5003;57669;52.624;-1.688;2023-04-03T14:07:28;7;7;
70255;PMS5003;57669;52.624;-1.688;2023-04-03T14:09:53;8;7;
70255;PMS5003;57669;52.624;-1.688;2023-04-03T14:12:21;5;5;
70255;PMS5003;57669;52.624;-1.688;2023-04-03T14:14:44;8;7;
70255;PMS5003;57669;52.624;-1.688;2023-04-03T14:17:15;6;6;
70255;PMS5003;57669;52.624;-1.688;2023-04-03T14:19:36;8;7;
70255;PMS5003;57669;52.624;-1.688;2023-04-03T14:22:10;7;6;
70255;PMS5003;57669;52.624;-1.688;2023-04-03T14:24:27;9;7;
70255;PMS5003;57669;52.624;-1.688;2023-04-03T14:26:54;6;6;
70255;PMS5003;57669;52.624;-1.688;2023-04-03T14:29:19;7;5;
70255;PMS5003;57669;52.624;-1.688;2023-04-03T14:31:44;5;5;
70255;PMS5003;57669;52.624;-1.688;2023-04-03T14:34:10;5;5;
70255;PMS5003;57669;52.624;-1.688;2023-04-03T14:36:35;3;3;
70255;PMS5003;57669;52.624;-1.688;2023-04-03T14:39:02;6;6;
70255;PMS5003;57669;52.624;-1.688;2023-04-03T14:41:27;6;5;
70255;PMS5003;57669;52.624;-1.688;2023-04-03T14:43:52;5;5;
70255;PMS5003;57669;52.624;-1.688;2023-04-03T14:46:18;4;4;
70255;PMS5003;57669;52.624;-1.688;2023-04-03T14:48:44;6;6;
70255;PMS5003;57669;52.624;-1.688;2023-04-03T14:51:09;6;5;
70255;PMS5003;57669;52.624;-1.688;2023-04-03T14:53:34;8;7;
70255;PMS5003;57669;52.624;-1.688;2023-04-03T14:56:00;5;5;
70255;PMS5003;57669;52.624;-1.688;2023-04-03T14:58:26;6;6;
70255;PMS5003;57669;52.624;-1.688;2023-04-03T15:00:51;6;5;
70255;PMS5003;57669;52.624;-1.688;2023-04-03T15:03:18;5;4;
70255;PMS5003;57669;52.624;-1.688;2023-04-03T15:05:43;6;6;
70255;PMS5003;57669;52.624;-1.688;2023-04-03T15:08:11;11;9;
70255;PMS5003;57669;52.624;-1.688;2023-04-03T15:10:33;4;4;
70255;PMS5003;57669;52.624;-1.688;2023-04-03T15:12:59;6;5;
70255;PMS5003;57669;52.624;-1.688;2023-04-03T15:15:27;5;5;
70255;PMS5003;57669;52.624;-1.688;2023-04-03T15:17:51;4;4;
70255;PMS5003;57669;52.624;-1.688;2023-04-03T15:20:18;8;5;
70255;PMS5003;57669;52.624;-1.688;2023-04-03T15:22:41;8;7;
70255;PMS5003;57669;52.624;-1.688;2023-04-03T15:25:07;7;7;
70255;PMS5003;57669;52.624;-1.688;2023-04-03T15:27:33;6;6;
70255;PMS5003;57669;52.624;-1.688;2023-04-03T15:29:58;6;5;
70255;PMS5003;57669;52.624;-1.688;2023-04-03T15:32:24;5;5;
70255;PMS5003;57669;52.624;-1.688;2023-04-03T15:34:50;4;4;
70255;PMS5003;57669;52.624;-1.688;2023-04-03T15:37:15;7;7;
70255;PMS5003;57669;52.624;-1.688;2023-04-03T15:39:41;6;6;
70255;PMS5003;57669;52.624;-1.688;2023-04-03T15:42:07;7;7;
70255;PMS5003;57669;52.624;-1.688;2023-04-03T15:44:32;6;6;
70255;PMS5003;57669;52.624;-1.688;2023-04-03T15:46:58;6;6;
70255;PMS5003;57669;52.624;-1.688;2023-04-03T15:49:24;6;6;
70255;PMS5003;57669;52.624;-1.688;2023-04-03T15:51:49;7;6;
70255;PMS5003;57669;52.624;-1.688;2023-04-03T15:54:15;7;7;
70255;PMS5003;57669;52.624;-1.688;2023-04-03T15:56:41;8;8;
70255;PMS5003;57669;52.624;-1.688;2023-04-03T15:59:06;7;7;
70255;PMS5003;57669;52.624;-1.688;2023-04-03T16:01:32;7;7;
70255;PMS5003;57669;52.624;-1.688;2023-04-03T16:03:57;6;6;
70255;PMS5003;57669;52.624;-1.688;2023-04-03T16:06:23;8;8;
70255;PMS5003;57669;52.624;-1.688;2023-04-03T16:08:49;8;8;
70255;PMS5003;57669;52.624;-1.688;2023-04-03T16:11:14;6;6;
70255;PMS5003;57669;52.624;-1.688;2023-04-03T16:13:40;9;8;
70255;PMS5003;57669;52.624;-1.688;2023-04-03T16:16:06;9;9;
70255;PMS5003;57669;52.624;-1.688;2023-04-03T16:18:32;8;8;
70255;PMS5003;57669;52.624;-1.688;2023-04-03T16:20:57;10;10;
70255;PMS5003;57669;52.624;-1.688;2023-04-03T16:23:23;9;9;
70255;PMS5003;57669;52.624;-1.688;2023-04-03T16:25:49;8;8;
70255;PMS5003;57669;52.624;-1.688;2023-04-03T16:28:15;7;7;
70255;PMS5003;57669;52.624;-1.688;2023-04-03T16:30:40;9;9;
70255;PMS5003;57669;52.624;-1.688;2023-04-03T16:33:06;11;10;
70255;PMS5003;57669;52.624;-1.688;2023-04-03T16:35:31;8;8;
70255;PMS5003;57669;52.624;-1.688;2023-04-03T16:37:57;9;9;
70255;PMS5003;57669;52.624;-1.688;2023-04-03T16:40:23;9;9;
70255;PMS5003;57669;52.624;-1.688;2023-04-03T16:42:48;9;9;
70255;PMS5003;57669;52.624;-1.688;2023-04-03T16:45:14;8;8;
70255;PMS5003;57669;52.624;-1.688;2023-04-03T16:47:40;10;9;
70255;PMS5003;57669;52.624;-1.688;2023-04-03T16:50:06;7;7;
70255;PMS5003;57669;52.624;-1.688;2023-04-03T16:52:31;8;8;
70255;PMS5003;57669;52.624;-1.688;2023-04-03T16:54:57;10;9;
70255;PMS5003;57669;52.624;-1.688;2023-04-03T16:57:22;7;7;
70255;PMS5003;57669;52.624;-1.688;2023-04-03T16:59:49;14;12;
70255;PMS5003;57669;52.624;-1.688;2023-04-03T17:02:14;12;12;
70255;PMS5003;57669;52.624;-1.688;2023-04-03T17:04:39;18;17;
70255;PMS5003;57669;52.624;-1.688;2023-04-03T17:07:05;10;10;
70255;PMS5003;57669;52.624;-1.688;2023-04-03T17:09:30;9;9;
70255;PMS5003;57669;52.624;-1.688;2023-04-03T17:11:56;9;9;
70255;PMS5003;57669;52.624;-1.688;2023-04-03T17:14:22;16;16;
70255;PMS5003;57669;52.624;-1.688;2023-04-03T17:16:48;17;16;
70255;PMS5003;57669;52.624;-1.688;2023-04-03T17:19:14;39;35;
70255;PMS5003;57669;52.624;-1.688;2023-04-03T17:21:39;30;28;
70255;PMS5003;57669;52.624;-1.688;2023-04-03T17:24:05;11;10;
70255;PMS5003;57669;52.624;-1.688;2023-04-03T17:26:30;12;11;
70255;PMS5003;57669;52.624;-1.688;2023-04-03T17:28:55;10;10;
70255;PMS5003;57669;52.624;-1.688;2023-04-03T17:31:21;24;24;
70255;PMS5003;57669;52.624;-1.688;2023-04-03T17:33:46;9;9;
70255;PMS5003;57669;52.624;-1.688;2023-04-03T17:36:12;9;9;